sensor_id;sensor_type;location;lat;lon;timestamp;temperature;humidity
33741;DHT22;20065;48.380;10.892;2023-04-01T00:01:43;8.10;99.90
33741;DHT22;20065;48.380;10.892;2023-04-01T00:04:30;8.10;99.90
33741;DHT22;20065;48.380;10.892;2023-04-01T00:07:16;8.10;99.90
33741;DHT22;20065;48.380;10.892;2023-04-01T00:10:03;8.10;99.90
33741;DHT22;20065;48.380;10.892;2023-04-01T00:12:50;8.10;99.90
33741;DHT22;20065;48.380;10.892;2023-04-01T00:15:36;8.10;99.90
33741;DHT22;20065;48.380;10.892;2023-04-01T00:18:23;7.90;99.90
33741;DHT22;20065;48.380;10.892;2023-04-01T00:21:09;7.90;99.90
33741;DHT22;20065;48.380;10.892;2023-04-01T00:23:55;7.90;99.90
33741;DHT22;20065;48.380;10.892;2023-04-01T00:26:41;8.00;99.90
33741;DHT22;20065;48.380;10.892;2023-04-01T00:29:28;8.00;99.90
33741;DHT22;20065;48.380;10.892;2023-04-01T00:32:16;8.00;99.90
33741;DHT22;20065;48.380;10.892;2023-04-01T00:35:03;8.00;99.90
33741;DHT22;20065;48.380;10.892;2023-04-01T00:37:49;8.00;99.90
33741;DHT22;20065;48.380;10.892;2023-04-01T00:40:42;8.00;99.90
33741;DHT22;20065;48.380;10.892;2023-04-01T00:43:28;8.10;99.90
33741;DHT22;20065;48.380;10.892;2023-04-01T00:46:14;8.10;99.90
33741;DHT22;20065;48.380;10.892;2023-04-01T00:49:01;8.00;99.90
33741;DHT22;20065;48.380;10.892;2023-04-01T00:51:51;8.00;99.90
33741;DHT22;20065;48.380;10.892;2023-04-01T00:54:38;8.10;99.90
33741;DHT22;20065;48.380;10.892;2023-04-01T00:57:36;8.10;99.90
33741;DHT22;20065;48.380;10.892;2023-04-01T01:00:23;8.10;99.90
33741;DHT22;20065;48.380;10.892;2023-04-01T01:03:09;8.10;99.90
33741;DHT22;20065;48.380;10.892;2023-04-01T01:21:13;8.10;99.90
33741;DHT22;20065;48.380;10.892;2023-04-01T01:27:16;8.10;99.90
33741;DHT22;20065;48.380;10.892;2023-04-01T01:30:12;8.10;99.90
33741;DHT22;20065;48.380;10.892;2023-04-01T01:35:56;8.00;99.90
33741;DHT22;20065;48.380;10.892;2023-04-01T01:38:48;8.00;99.90
33741;DHT22;20065;48.380;10.892;2023-04-01T01:41:37;8.00;99.90
33741;DHT22;20065;48.380;10.892;2023-04-01T01:44:26;8.00;99.90
33741;DHT22;20065;48.380;10.892;2023-04-01T01:47:15;8.00;99.90
33741;DHT22;20065;48.380;10.892;2023-04-01T01:50:03;8.00;99.90
33741;DHT22;20065;48.380;10.892;2023-04-01T01:52:50;7.80;99.90
33741;DHT22;20065;48.380;10.892;2023-04-01T01:55:42;7.80;99.90
33741;DHT22;20065;48.380;10.892;2023-04-01T01:58:32;7.80;99.90
33741;DHT22;20065;48.380;10.892;2023-04-01T02:01:24;7.70;99.90
33741;DHT22;20065;48.380;10.892;2023-04-01T02:04:13;7.70;99.90
33741;DHT22;20065;48.380;10.892;2023-04-01T02:07:08;7.70;99.90
33741;DHT22;20065;48.380;10.892;2023-04-01T02:09:57;7.70;99.90
33741;DHT22;20065;48.380;10.892;2023-04-01T02:12:46;7.60;99.90
33741;DHT22;20065;48.380;10.892;2023-04-01T02:15:36;7.60;99.90
33741;DHT22;20065;48.380;10.892;2023-04-01T02:18:23;7.70;99.90
33741;DHT22;20065;48.380;10.892;2023-04-01T02:21:10;7.70;99.90
33741;DHT22;20065;48.380;10.892;2023-04-01T02:24:00;7.60;99.90
33741;DHT22;20065;48.380;10.892;2023-04-01T02:26:48;7.60;99.90
33741;DHT22;20065;48.380;10.892;2023-04-01T02:29:34;7.60;99.90
33741;DHT22;20065;48.380;10.892;2023-04-01T02:32:21;7.50;99.90
33741;DHT22;20065;48.380;10.892;2023-04-01T02:35:13;7.50;99.90
33741;DHT22;20065;48.380;10.892;2023-04-01T02:38:00;7.50;99.90
33741;DHT22;20065;48.380;10.892;2023-04-01T02:40:49;7.50;99.90
33741;DHT22;20065;48.380;10.892;2023-04-01T02:43:35;7.50;99.90
33741;DHT22;20065;48.380;10.892;2023-04-01T02:46:22;7.50;99.90
33741;DHT22;20065;48.380;10.892;2023-04-01T02:49:08;7.40;99.90
33741;DHT22;20065;48.380;10.892;2023-04-01T02:51:54;7.30;99.90
33741;DHT22;20065;48.380;10.892;2023-04-01T02:54:40;7.30;99.90
33741;DHT22;20065;48.380;10.892;2023-04-01T02:57:26;7.30;99.90
33741;DHT22;20065;48.380;10.892;2023-04-01T03:00:13;7.30;99.90
33741;DHT22;20065;48.380;10.892;2023-04-01T03:03:00;7.20;99.90
33741;DHT22;20065;48.380;10.892;2023-04-01T03:05:46;7.20;99.90
33741;DHT22;20065;48.380;10.892;2023-04-01T03:08:32;7.20;99.90
33741;DHT22;20065;48.380;10.892;2023-04-01T03:11:18;7.20;99.90
33741;DHT22;20065;48.380;10.892;2023-04-01T03:14:04;7.20;99.90
33741;DHT22;20065;48.380;10.892;2023-04-01T03:16:50;7.20;99.90
33741;DHT22;20065;48.380;10.892;2023-04-01T03:19:36;7.20;99.90
33741;DHT22;20065;48.380;10.892;2023-04-01T03:22:27;7.10;99.90
33741;DHT22;20065;48.380;10.892;2023-04-01T03:25:13;7.20;99.90
33741;DHT22;20065;48.380;10.892;2023-04-01T03:27:59;7.20;99.90
33741;DHT22;20065;48.380;10.892;2023-04-01T03:30:45;7.30;99.90
33741;DHT22;20065;48.380;10.892;2023-04-01T03:33:32;7.20;99.90
33741;DHT22;20065;48.380;10.892;2023-04-01T03:36:18;7.30;99.90
33741;DHT22;20065;48.380;10.892;2023-04-01T03:39:06;7.30;99.90
33741;DHT22;20065;48.380;10.892;2023-04-01T03:41:59;7.20;99.90
33741;DHT22;20065;48.380;10.892;2023-04-01T03:44:46;7.10;99.90
33741;DHT22;20065;48.380;10.892;2023-04-01T03:47:32;7.20;99.90
33741;DHT22;20065;48.380;10.892;2023-04-01T03:50:18;7.20;99.90
33741;DHT22;20065;48.380;10.892;2023-04-01T03:53:05;7.20;99.90
33741;DHT22;20065;48.380;10.892;2023-04-01T03:55:52;7.20;99.90
33741;DHT22;20065;48.380;10.892;2023-04-01T03:58:38;7.30;99.90
33741;DHT22;20065;48.380;10.892;2023-04-01T04:01:27;7.30;99.90
33741;DHT22;20065;48.380;10.892;2023-04-01T04:04:15;7.20;99.90
33741;DHT22;20065;48.380;10.892;2023-04-01T04:07:01;7.20;99.90
33741;DHT22;20065;48.380;10.892;2023-04-01T04:09:53;7.20;99.90
33741;DHT22;20065;48.380;10.892;2023-04-01T04:12:39;7.10;99.90
33741;DHT22;20065;48.380;10.892;2023-04-01T04:15:26;7.20;99.90
33741;DHT22;20065;48.380;10.892;2023-04-01T04:18:12;7.20;99.90
33741;DHT22;20065;48.380;10.892;2023-04-01T04:20:58;7.20;99.90
33741;DHT22;20065;48.380;10.892;2023-04-01T04:23:45;7.20;99.90
33741;DHT22;20065;48.380;10.892;2023-04-01T04:26:33;7.20;99.90
33741;DHT22;20065;48.380;10.892;2023-04-01T04:29:20;7.00;99.90
33741;DHT22;20065;48.380;10.892;2023-04-01T04:32:07;6.80;99.90
33741;DHT22;20065;48.380;10.892;2023-04-01T04:34:53;6.70;99.90
33741;DHT22;20065;48.380;10.892;2023-04-01T04:37:39;6.60;99.90
33741;DHT22;20065;48.380;10.892;2023-04-01T04:40:26;6.60;99.90
33741;DHT22;20065;48.380;10.892;2023-04-01T04:43:15;6.60;99.90
33741;DHT22;20065;48.380;10.892;2023-04-01T04:46:11;6.60;99.90
33741;DHT22;20065;48.380;10.892;2023-04-01T04:48:57;6.60;99.90
33741;DHT22;20065;48.380;10.892;2023-04-01T04:51:43;6.70;99.90
33741;DHT22;20065;48.380;10.892;2023-04-01T04:54:33;6.70;99.90
33741;DHT22;20065;48.380;10.892;2023-04-01T04:57:21;6.90;99.90
33741;DHT22;20065;48.380;10.892;2023-04-01T05:00:13;6.90;99.90
33741;DHT22;20065;48.380;10.892;2023-04-01T05:03:20;6.90;99.90
33741;DHT22;20065;48.380;10.892;2023-04-01T05:06:08;7.00;99.90
33741;DHT22;20065;48.380;10.892;2023-04-01T05:08:54;7.10;99.90
33741;DHT22;20065;48.380;10.892;2023-04-01T05:11:42;7.10;99.90
33741;DHT22;20065;48.380;10.892;2023-04-01T05:14:29;7.20;99.90
33741;DHT22;20065;48.380;10.892;2023-04-01T05:17:22;7.20;99.90
33741;DHT22;20065;48.380;10.892;2023-04-01T05:20:11;7.20;99.90
33741;DHT22;20065;48.380;10.892;2023-04-01T05:22:58;7.30;99.90
33741;DHT22;20065;48.380;10.892;2023-04-01T05:25:45;7.40;99.90
33741;DHT22;20065;48.380;10.892;2023-04-01T05:28:31;7.40;99.90
33741;DHT22;20065;48.380;10.892;2023-04-01T05:31:18;7.40;99.90
33741;DHT22;20065;48.380;10.892;2023-04-01T05:34:07;7.40;99.90
33741;DHT22;20065;48.380;10.892;2023-04-01T05:36:53;7.40;99.90
33741;DHT22;20065;48.380;10.892;2023-04-01T05:39:39;7.40;99.90
33741;DHT22;20065;48.380;10.892;2023-04-01T05:42:26;7.40;99.90
33741;DHT22;20065;48.380;10.892;2023-04-01T05:45:13;7.40;99.90
33741;DHT22;20065;48.380;10.892;2023-04-01T05:48:21;7.40;99.90
33741;DHT22;20065;48.380;10.892;2023-04-01T05:51:12;7.40;99.90
33741;DHT22;20065;48.380;10.892;2023-04-01T05:53:59;7.30;99.90
33741;DHT22;20065;48.380;10.892;2023-04-01T05:56:46;7.40;99.90
33741;DHT22;20065;48.380;10.892;2023-04-01T05:59:32;7.50;99.90
33741;DHT22;20065;48.380;10.892;2023-04-01T06:02:18;7.50;99.90
33741;DHT22;20065;48.380;10.892;2023-04-01T06:08:02;7.50;99.90
33741;DHT22;20065;48.380;10.892;2023-04-01T06:11:12;7.50;99.90
33741;DHT22;20065;48.380;10.892;2023-04-01T06:15:06;7.50;99.90
33741;DHT22;20065;48.380;10.892;2023-04-01T06:21:04;7.70;99.90
33741;DHT22;20065;48.380;10.892;2023-04-01T06:24:15;7.80;99.90
33741;DHT22;20065;48.380;10.892;2023-04-01T06:30:47;7.90;99.90
33741;DHT22;20065;48.380;10.892;2023-04-01T06:37:23;8.10;99.90
33741;DHT22;20065;48.380;10.892;2023-04-01T06:40:36;8.20;99.90
33741;DHT22;20065;48.380;10.892;2023-04-01T06:49:56;8.20;99.90
33741;DHT22;20065;48.380;10.892;2023-04-01T06:53:21;8.10;99.90
33741;DHT22;20065;48.380;10.892;2023-04-01T06:56:32;8.20;99.90
33741;DHT22;20065;48.380;10.892;2023-04-01T06:59:38;8.30;99.90
33741;DHT22;20065;48.380;10.892;2023-04-01T07:02:36;8.40;99.90
33741;DHT22;20065;48.380;10.892;2023-04-01T07:05:23;8.40;99.90
33741;DHT22;20065;48.380;10.892;2023-04-01T07:08:13;8.60;99.90
33741;DHT22;20065;48.380;10.892;2023-04-01T07:11:04;8.80;99.90
33741;DHT22;20065;48.380;10.892;2023-04-01T07:14:22;8.80;99.90
33741;DHT22;20065;48.380;10.892;2023-04-01T07:17:32;8.90;99.90
33741;DHT22;20065;48.380;10.892;2023-04-01T07:20:45;8.90;99.90
33741;DHT22;20065;48.380;10.892;2023-04-01T07:23:38;8.90;99.90
33741;DHT22;20065;48.380;10.892;2023-04-01T07:26:38;8.90;99.90
33741;DHT22;20065;48.380;10.892;2023-04-01T07:29:32;8.90;99.90
33741;DHT22;20065;48.380;10.892;2023-04-01T07:32:27;9.00;99.90
33741;DHT22;20065;48.380;10.892;2023-04-01T07:35:41;9.00;99.90
33741;DHT22;20065;48.380;10.892;2023-04-01T07:41:51;9.10;99.90
33741;DHT22;20065;48.380;10.892;2023-04-01T07:51:07;9.10;99.90
33741;DHT22;20065;48.380;10.892;2023-04-01T07:54:10;9.00;99.90
33741;DHT22;20065;48.380;10.892;2023-04-01T07:57:15;8.90;99.90
33741;DHT22;20065;48.380;10.892;2023-04-01T08:00:24;9.00;99.90
33741;DHT22;20065;48.380;10.892;2023-04-01T08:16:16;9.10;99.90
33741;DHT22;20065;48.380;10.892;2023-04-01T08:19:30;9.30;99.90
33741;DHT22;20065;48.380;10.892;2023-04-01T08:22:57;9.40;99.90
33741;DHT22;20065;48.380;10.892;2023-04-01T08:26:04;9.40;99.90
33741;DHT22;20065;48.380;10.892;2023-04-01T08:29:00;9.60;99.90
33741;DHT22;20065;48.380;10.892;2023-04-01T08:34:48;10.10;99.90
33741;DHT22;20065;48.380;10.892;2023-04-01T08:37:45;10.10;99.90
33741;DHT22;20065;48.380;10.892;2023-04-01T08:50:36;9.90;99.90
33741;DHT22;20065;48.380;10.892;2023-04-01T08:57:22;9.80;99.90
33741;DHT22;20065;48.380;10.892;2023-04-01T09:00:57;9.80;99.90
33741;DHT22;20065;48.380;10.892;2023-04-01T09:03:58;10.00;99.90
33741;DHT22;20065;48.380;10.892;2023-04-01T09:07:04;10.20;99.90
33741;DHT22;20065;48.380;10.892;2023-04-01T09:16:28;10.10;99.90
33741;DHT22;20065;48.380;10.892;2023-04-01T09:22:40;10.30;99.90
33741;DHT22;20065;48.380;10.892;2023-04-01T09:44:23;10.70;99.90
33741;DHT22;20065;48.380;10.892;2023-04-01T09:53:36;9.90;99.90
33741;DHT22;20065;48.380;10.892;2023-04-01T10:54:18;8.00;99.90
33741;DHT22;20065;48.380;10.892;2023-04-01T11:08:33;7.60;99.90
33741;DHT22;20065;48.380;10.892;2023-04-01T11:31:43;7.40;99.90
33741;DHT22;20065;48.380;10.892;2023-04-01T11:37:58;7.40;99.90
33741;DHT22;20065;48.380;10.892;2023-04-01T11:44:29;7.40;99.90
33741;DHT22;20065;48.380;10.892;2023-04-01T11:54:38;7.70;99.90
33741;DHT22;20065;48.380;10.892;2023-04-01T12:00:29;7.80;99.90
33741;DHT22;20065;48.380;10.892;2023-04-01T12:03:54;7.80;99.90
33741;DHT22;20065;48.380;10.892;2023-04-01T12:13:08;7.80;99.90
33741;DHT22;20065;48.380;10.892;2023-04-01T12:16:26;7.80;99.90
33741;DHT22;20065;48.380;10.892;2023-04-01T12:31:47;7.90;99.90
33741;DHT22;20065;48.380;10.892;2023-04-01T12:34:57;8.00;99.90
33741;DHT22;20065;48.380;10.892;2023-04-01T12:47:10;7.90;99.90
33741;DHT22;20065;48.380;10.892;2023-04-01T13:03:17;8.40;99.90
33741;DHT22;20065;48.380;10.892;2023-04-01T13:09:17;8.40;99.90
33741;DHT22;20065;48.380;10.892;2023-04-01T13:12:25;8.50;99.90
33741;DHT22;20065;48.380;10.892;2023-04-01T13:24:39;8.30;99.90
33741;DHT22;20065;48.380;10.892;2023-04-01T13:27:37;8.30;99.90
33741;DHT22;20065;48.380;10.892;2023-04-01T13:36:36;8.70;99.90
33741;DHT22;20065;48.380;10.892;2023-04-01T13:42:43;8.90;99.90
33741;DHT22;20065;48.380;10.892;2023-04-01T13:48:57;9.40;99.90
33741;DHT22;20065;48.380;10.892;2023-04-01T13:57:49;9.60;99.90
33741;DHT22;20065;48.380;10.892;2023-04-01T14:13:40;9.90;99.90
33741;DHT22;20065;48.380;10.892;2023-04-01T14:23:29;9.70;99.90
33741;DHT22;20065;48.380;10.892;2023-04-01T14:29:06;9.20;99.90
33741;DHT22;20065;48.380;10.892;2023-04-01T14:41:16;9.20;99.90
33741;DHT22;20065;48.380;10.892;2023-04-01T14:44:18;9.00;99.90
33741;DHT22;20065;48.380;10.892;2023-04-01T14:47:27;9.00;99.90
33741;DHT22;20065;48.380;10.892;2023-04-01T14:50:21;9.10;99.90
33741;DHT22;20065;48.380;10.892;2023-04-01T14:56:10;9.40;99.90
33741;DHT22;20065;48.380;10.892;2023-04-01T14:58:57;9.40;99.90
33741;DHT22;20065;48.380;10.892;2023-04-01T15:27:25;9.50;99.90
33741;DHT22;20065;48.380;10.892;2023-04-01T15:36:47;9.80;99.90
33741;DHT22;20065;48.380;10.892;2023-04-01T15:46:24;9.80;99.90
33741;DHT22;20065;48.380;10.892;2023-04-01T16:01:37;10.00;99.90
33741;DHT22;20065;48.380;10.892;2023-04-01T16:10:47;10.10;99.90
33741;DHT22;20065;48.380;10.892;2023-04-01T16:23:49;9.90;99.90
33741;DHT22;20065;48.380;10.892;2023-04-01T16:27:14;9.80;99.90
33741;DHT22;20065;48.380;10.892;2023-04-01T16:33:40;9.70;99.90
33741;DHT22;20065;48.380;10.892;2023-04-01T16:36:49;9.70;99.90
33741;DHT22;20065;48.380;10.892;2023-04-01T16:39:45;9.70;99.90
33741;DHT22;20065;48.380;10.892;2023-04-01T16:42:53;9.60;99.90
33741;DHT22;20065;48.380;10.892;2023-04-01T16:55:01;9.50;99.90
33741;DHT22;20065;48.380;10.892;2023-04-01T16:58:07;9.40;99.90
33741;DHT22;20065;48.380;10.892;2023-04-01T17:01:06;9.40;99.90
33741;DHT22;20065;48.380;10.892;2023-04-01T17:04:00;9.40;99.90
33741;DHT22;20065;48.380;10.892;2023-04-01T17:07:11;9.30;99.90
33741;DHT22;20065;48.380;10.892;2023-04-01T17:19:28;9.30;99.90
33741;DHT22;20065;48.380;10.892;2023-04-01T17:22:31;9.30;99.90
33741;DHT22;20065;48.380;10.892;2023-04-01T17:31:49;9.20;99.90
33741;DHT22;20065;48.380;10.892;2023-04-01T17:39:09;9.20;99.90
33741;DHT22;20065;48.380;10.892;2023-04-01T17:42:28;9.10;99.90
33741;DHT22;20065;48.380;10.892;2023-04-01T17:45:33;9.20;99.90
33741;DHT22;20065;48.380;10.892;2023-04-01T17:57:25;9.10;99.90
33741;DHT22;20065;48.380;10.892;2023-04-01T18:00:22;9.10;99.90
33741;DHT22;20065;48.380;10.892;2023-04-01T18:21:53;8.90;99.90
33741;DHT22;20065;48.380;10.892;2023-04-01T18:24:56;8.90;99.90
33741;DHT22;20065;48.380;10.892;2023-04-01T18:27:52;8.90;99.90
33741;DHT22;20065;48.380;10.892;2023-04-01T18:30:39;8.90;99.90
33741;DHT22;20065;48.380;10.892;2023-04-01T18:33:34;9.00;99.90
33741;DHT22;20065;48.380;10.892;2023-04-01T18:39:39;8.90;99.90
33741;DHT22;20065;48.380;10.892;2023-04-01T18:45:43;9.00;99.90
33741;DHT22;20065;48.380;10.892;2023-04-01T18:48:51;9.00;99.90
33741;DHT22;20065;48.380;10.892;2023-04-01T18:51:57;9.10;99.90
33741;DHT22;20065;48.380;10.892;2023-04-01T18:57:50;9.10;99.90
33741;DHT22;20065;48.380;10.892;2023-04-01T19:00:47;9.00;99.90
33741;DHT22;20065;48.380;10.892;2023-04-01T19:06:36;9.00;99.90
33741;DHT22;20065;48.380;10.892;2023-04-01T19:09:48;9.00;99.90
33741;DHT22;20065;48.380;10.892;2023-04-01T19:21:42;8.90;99.90
33741;DHT22;20065;48.380;10.892;2023-04-01T19:24:53;8.90;99.90
33741;DHT22;20065;48.380;10.892;2023-04-01T19:27:50;8.90;99.90
33741;DHT22;20065;48.380;10.892;2023-04-01T19:36:31;8.80;99.90
33741;DHT22;20065;48.380;10.892;2023-04-01T19:42:27;8.80;99.90
33741;DHT22;20065;48.380;10.892;2023-04-01T19:45:38;8.80;99.90
33741;DHT22;20065;48.380;10.892;2023-04-01T19:54:53;8.80;99.90
33741;DHT22;20065;48.380;10.892;2023-04-01T19:57:52;8.80;99.90
33741;DHT22;20065;48.380;10.892;2023-04-01T20:00:50;8.80;99.90
33741;DHT22;20065;48.380;10.892;2023-04-01T20:03:58;8.70;99.90
33741;DHT22;20065;48.380;10.892;2023-04-01T20:07:06;8.80;99.90
33741;DHT22;20065;48.380;10.892;2023-04-01T20:10:16;8.70;99.90
33741;DHT22;20065;48.380;10.892;2023-04-01T20:13:15;8.70;99.90
33741;DHT22;20065;48.380;10.892;2023-04-01T20:16:06;8.70;99.90
33741;DHT22;20065;48.380;10.892;2023-04-01T20:19:00;8.70;99.90
33741;DHT22;20065;48.380;10.892;2023-04-01T20:21:49;8.70;99.90
33741;DHT22;20065;48.380;10.892;2023-04-01T20:24:41;8.60;99.90
33741;DHT22;20065;48.380;10.892;2023-04-01T20:27:35;8.60;99.90
33741;DHT22;20065;48.380;10.892;2023-04-01T20:39:33;8.60;99.90
33741;DHT22;20065;48.380;10.892;2023-04-01T20:51:33;8.50;99.90
33741;DHT22;20065;48.380;10.892;2023-04-01T20:54:34;8.50;99.90
33741;DHT22;20065;48.380;10.892;2023-04-01T21:01:29;8.30;99.90
33741;DHT22;20065;48.380;10.892;2023-04-01T21:14:28;8.30;99.90
33741;DHT22;20065;48.380;10.892;2023-04-01T21:20:53;8.30;99.90
33741;DHT22;20065;48.380;10.892;2023-04-01T21:23:52;8.30;99.90
33741;DHT22;20065;48.380;10.892;2023-04-01T21:27:03;8.30;99.90
33741;DHT22;20065;48.380;10.892;2023-04-01T21:30:03;8.30;99.90
33741;DHT22;20065;48.380;10.892;2023-04-01T21:33:16;8.30;99.90
33741;DHT22;20065;48.380;10.892;2023-04-01T22:11:14;8.00;99.90
33741;DHT22;20065;48.380;10.892;2023-04-01T22:17:26;7.90;99.90
33741;DHT22;20065;48.380;10.892;2023-04-01T22:20:36;8.00;99.90
33741;DHT22;20065;48.380;10.892;2023-04-01T22:23:47;8.00;99.90
33741;DHT22;20065;48.380;10.892;2023-04-01T22:32:46;7.80;99.90
33741;DHT22;20065;48.380;10.892;2023-04-01T22:36:01;7.80;99.90
33741;DHT22;20065;48.380;10.892;2023-04-01T22:39:03;7.70;99.90
33741;DHT22;20065;48.380;10.892;2023-04-01T22:48:22;7.70;99.90
33741;DHT22;20065;48.380;10.892;2023-04-01T22:51:18;7.70;99.90
33741;DHT22;20065;48.380;10.892;2023-04-01T22:54:15;7.70;99.90
33741;DHT22;20065;48.380;10.892;2023-04-01T23:00:22;7.60;99.90
33741;DHT22;20065;48.380;10.892;2023-04-01T23:06:05;7.70;99.90
33741;DHT22;20065;48.380;10.892;2023-04-01T23:14:58;7.80;99.90
33741;DHT22;20065;48.380;10.892;2023-04-01T23:24:33;7.80;99.90
33741;DHT22;20065;48.380;10.892;2023-04-01T23:27:32;7.90;99.90
33741;DHT22;20065;48.380;10.892;2023-04-01T23:33:30;7.90;99.90
33741;DHT22;20065;48.380;10.892;2023-04-01T23:36:16;7.80;99.90
33741;DHT22;20065;48.380;10.892;2023-04-01T23:39:06;7.80;99.90
33741;DHT22;20065;48.380;10.892;2023-04-01T23:42:07;7.80;99.90
33741;DHT22;20065;48.380;10.892;2023-04-01T23:45:11;7.80;99.90
33741;DHT22;20065;48.380;10.892;2023-04-01T23:48:03;7.80;99.90
33741;DHT22;20065;48.380;10.892;2023-04-01T23:50:49;7.80;99.90
33741;DHT22;20065;48.380;10.892;2023-04-01T23:53:35;7.70;99.90
33741;DHT22;20065;48.380;10.892;2023-04-01T23:56:36;7.70;99.90
33741;DHT22;20065;48.380;10.892;2023-04-01T23:59:30;7.70;99.90
